Time;durP1;ratioP1;P1;durP2;ratioP2;P2;SDS_P1;SDS_P2;PMS_P1;PMS_P2;Temp;Humidity;BMP_temperature;BMP_pressure;BME280_temperature;BME280_humidity;BME280_pressure;Samples;Min_cycle;Max_cycle;Signal;HPM_P1;HPM_P2
2022/09/30 00:00:13;;;;;;;0.20;0.10;;;16.20;99.90;;;;;;26080828;22;20176;-69
2022/09/30 00:10:17;;;;;;;0.20;0.10;;;16.30;99.90;;;;;;26053127;22;20184;-68
2022/09/30 00:20:23;;;;;;;0.20;0.10;;;16.20;99.90;;;;;;26079863;22;20203;-68
2022/09/30 00:30:26;;;;;;;0.20;0.10;;;16.10;99.90;;;;;;26080129;22;20647;-68
2022/09/30 00:40:32;;;;;;;0.20;0.10;;;16.00;99.90;;;;;;26079303;22;20184;-68
2022/09/30 00:50:41;;;;;;;0.20;0.10;;;15.90;99.90;;;;;;26052170;22;20206;-68
2022/09/30 01:00:47;;;;;;;0.20;0.10;;;15.90;99.90;;;;;;26078461;22;20217;-69
2022/09/30 01:10:50;;;;;;;0.20;0.00;;;16.00;99.90;;;;;;26077804;22;20177;-69
2022/09/30 01:21:37;;;;;;;0.20;0.10;;;15.90;99.90;;;;;;26077132;22;20245;-69
2022/09/30 01:31:53;;;;;;;0.20;0.10;;;15.80;99.90;;;;;;26076941;22;20234;-68
2022/09/30 01:42:08;;;;;;;0.20;0.10;;;16.00;99.90;;;;;;26049631;22;20164;-69
2022/09/30 01:52:16;;;;;;;0.20;0.00;;;16.00;99.90;;;;;;26049629;22;20234;-69
2022/09/30 02:02:24;;;;;;;0.20;0.10;;;15.90;99.90;;;;;;26075951;22;20249;-67
2022/09/30 02:12:35;;;;;;;0.20;0.10;;;15.80;99.90;;;;;;26048816;22;20211;-68
2022/09/30 02:22:43;;;;;;;0.20;0.00;;;15.50;99.90;;;;;;26048369;22;20203;-67
2022/09/30 02:32:51;;;;;;;0.20;0.10;;;15.30;99.90;;;;;;26073938;22;20172;-68
2022/09/30 02:42:56;;;;;;;0.20;0.00;;;15.30;99.90;;;;;;26048125;22;20254;-67
2022/09/30 02:53:14;;;;;;;0.20;0.10;;;15.20;99.90;;;;;;26047436;22;20196;-67
2022/09/30 03:03:21;;;;;;;0.20;0.10;;;15.10;99.90;;;;;;26073649;22;20164;-68
2022/09/30 05:50:36;;;;;;;0.20;0.10;;;14.60;99.90;;;;;;26069939;22;20222;-67
2022/09/30 06:00:42;;;;;;;0.20;0.00;;;14.60;99.90;;;;;;26036535;22;20164;-69
2022/09/30 06:10:47;;;;;;;0.20;0.00;;;14.80;99.90;;;;;;26068680;22;20206;-68
2022/09/30 06:20:51;;;;;;;0.20;0.10;;;14.80;99.90;;;;;;26071878;22;20160;-67
2022/09/30 06:30:56;;;;;;;0.20;0.00;;;14.80;99.90;;;;;;26070733;22;20258;-70
2022/09/30 06:41:00;;;;;;;0.20;0.10;;;15.00;99.90;;;;;;26049244;22;20195;-68
2022/09/30 06:51:08;;;;;;;0.20;0.03;;;15.20;99.90;;;;;;26198425;22;20206;-68
2022/09/30 07:01:13;;;;;;;0.20;0.10;;;15.50;99.90;;;;;;26196144;22;20191;-70
2022/09/30 07:11:19;;;;;;;0.20;0.00;;;15.90;99.90;;;;;;26166201;22;20183;-68
2022/09/30 07:21:22;;;;;;;0.20;0.00;;;16.20;99.90;;;;;;26203151;22;20175;-69
2022/09/30 07:31:28;;;;;;;0.20;0.00;;;16.40;99.90;;;;;;26206139;22;20229;-68
2022/09/30 07:41:39;;;;;;;0.20;0.10;;;16.60;99.90;;;;;;26181322;22;20281;-69
2022/09/30 07:51:45;;;;;;;0.20;0.10;;;16.90;99.90;;;;;;26179025;22;20191;-68
2022/09/30 08:01:49;;;;;;;0.20;0.10;;;17.00;99.90;;;;;;26176875;22;20225;-70
2022/09/30 08:11:55;;;;;;;0.20;0.00;;;17.30;99.90;;;;;;26177751;22;20229;-68
2022/09/30 08:21:59;;;;;;;0.20;0.00;;;17.70;99.90;;;;;;26178095;22;20170;-68
2022/09/30 08:32:04;;;;;;;0.20;0.00;;;17.60;99.90;;;;;;26203822;22;20229;-67
2022/09/30 08:42:22;;;;;;;0.20;0.10;;;17.70;99.90;;;;;;26177321;22;20193;-67
2022/09/30 08:52:45;;;;;;;0.20;0.10;;;17.90;99.90;;;;;;26175745;22;20187;-66
2022/09/30 09:02:54;;;;;;;0.20;0.00;;;18.30;99.90;;;;;;26173871;22;20163;-67
2022/09/30 09:13:08;;;;;;;0.20;0.00;;;18.60;99.90;;;;;;26200442;22;20183;-67
2022/09/30 09:23:14;;;;;;;0.20;0.00;;;19.20;99.90;;;;;;26198517;22;20176;-66
2022/09/30 09:33:21;;;;;;;0.20;0.00;;;19.20;99.90;;;;;;26200236;22;20256;-69
2022/09/30 09:43:37;;;;;;;0.20;0.10;;;19.70;99.90;;;;;;26199625;22;20292;-69
2022/09/30 09:53:48;;;;;;;0.20;0.00;;;20.20;99.90;;;;;;26199368;22;20182;-69
2022/09/30 10:04:15;;;;;;;0.20;0.00;;;20.90;99.90;;;;;;26199202;22;20174;-68
2022/09/30 10:14:22;;;;;;;0.20;0.00;;;21.60;99.90;;;;;;26199889;22;20213;-69
2022/09/30 10:24:29;;;;;;;0.20;0.00;;;21.90;99.90;;;;;;26200471;22;20179;-67
2022/09/30 10:34:38;;;;;;;0.20;0.00;;;22.20;99.90;;;;;;26198705;22;20242;-68
2022/09/30 10:44:45;;;;;;;0.20;0.00;;;22.50;99.90;;;;;;26197596;22;20179;-66
2022/09/30 10:54:52;;;;;;;0.20;0.00;;;23.10;99.90;;;;;;26177043;22;20190;-69
2022/09/30 11:05:04;;;;;;;0.20;0.00;;;23.20;99.90;;;;;;26205936;22;20237;-68
2022/09/30 11:15:17;;;;;;;0.20;0.00;;;23.30;99.90;;;;;;26205046;22;20230;-70
2022/09/30 11:25:27;;;;;;;0.20;0.00;;;23.80;99.90;;;;;;26205309;22;20151;-69
2022/09/30 11:35:46;;;;;;;0.20;0.00;;;24.50;99.90;;;;;;26207375;22;20202;-68
2022/09/30 11:46:17;;;;;;;0.20;0.00;;;24.60;99.90;;;;;;26206062;22;20187;-71
2022/09/30 11:56:37;;;;;;;0.20;0.00;;;24.80;99.90;;;;;;26204929;22;20209;-68
2022/09/30 12:06:44;;;;;;;0.20;0.00;;;25.30;99.90;;;;;;26178090;22;20207;-68
2022/09/30 12:16:50;;;;;;;0.20;0.00;;;25.70;99.90;;;;;;26203584;22;20159;-68
2022/09/30 12:26:54;;;;;;;0.20;0.00;;;25.60;99.90;;;;;;26204030;22;20183;-68
2022/09/30 12:37:24;;;;;;;0.20;0.10;;;25.60;99.90;;;;;;26197164;22;20164;-69
2022/09/30 12:47:36;;;;;;;0.20;0.00;;;25.50;99.90;;;;;;26196505;22;20245;-67
2022/09/30 12:57:43;;;;;;;0.20;0.00;;;25.60;99.90;;;;;;26202711;22;20170;-69
2022/09/30 13:08:24;;;;;;;0.20;0.00;;;26.20;99.90;;;;;;26176054;22;20264;-69
2022/09/30 13:19:02;;;;;;;0.20;0.00;;;26.50;99.90;;;;;;26201241;22;20178;-69
2022/09/30 13:29:42;;;;;;;0.20;0.00;;;26.40;99.90;;;;;;26201792;22;20198;-67
2022/09/30 13:39:51;;;;;;;0.20;0.10;;;27.00;99.90;;;;;;26181357;22;20234;-68
2022/09/30 13:50:00;;;;;;;0.20;0.00;;;27.00;99.90;;;;;;26191513;22;20211;-69
2022/09/30 14:10:57;;;;;;;0.20;0.00;;;28.40;99.90;;;;;;21319246;27;20574;-68
2022/09/30 14:21:16;;;;;;;0.20;0.00;;;29.10;99.90;;;;;;21316854;28;20220;-68
2022/09/30 14:31:23;;;;;;;0.20;0.00;;;24.20;99.90;;;;;;21315658;28;20223;-70
2022/09/30 14:41:28;;;;;;;0.20;0.10;;;23.10;99.90;;;;;;21315661;28;20186;-68
2022/09/30 14:51:42;;;;;;;0.20;0.10;;;23.80;99.90;;;;;;21313803;28;20249;-69
2022/09/30 15:01:48;;;;;;;0.20;0.00;;;26.70;99.90;;;;;;21241146;28;20215;-67
2022/09/30 15:11:54;;;;;;;0.20;0.10;;;26.30;99.90;;;;;;21170458;28;20212;-68
2022/09/30 15:22:01;;;;;;;0.20;0.00;;;27.30;99.90;;;;;;21205740;28;20191;-66
2022/09/30 15:32:15;;;;;;;0.20;0.00;;;23.70;99.90;;;;;;21251886;28;20226;-67
2022/09/30 15:42:30;;;;;;;0.20;0.00;;;24.60;99.90;;;;;;21253519;28;20723;-70
2022/09/30 15:52:40;;;;;;;0.20;0.00;;;24.60;99.90;;;;;;21252008;28;20215;-68
2022/09/30 16:02:43;;;;;;;0.20;0.00;;;24.00;99.90;;;;;;21238162;28;20249;-69
2022/09/30 16:12:50;;;;;;;0.20;0.00;;;23.20;99.90;;;;;;21250595;28;20246;-67
2022/09/30 16:23:01;;;;;;;0.20;0.00;;;22.70;99.90;;;;;;21247768;28;20198;-69
2022/09/30 16:33:06;;;;;;;0.20;0.10;;;21.90;99.90;;;;;;21240230;28;20223;-67
2022/09/30 16:43:10;;;;;;;0.20;0.00;;;21.80;99.90;;;;;;21246881;28;20192;-68
2022/09/30 16:53:16;;;;;;;0.20;0.00;;;21.50;99.90;;;;;;21245439;27;20223;-68
2022/09/30 17:03:20;;;;;;;0.20;0.00;;;21.50;99.90;;;;;;21247363;28;20227;-68
2022/09/30 17:13:26;;;;;;;0.20;0.00;;;21.40;99.90;;;;;;21248547;28;20713;-69
2022/09/30 17:23:29;;;;;;;0.20;0.00;;;21.40;99.90;;;;;;21248496;28;21228;-68
2022/09/30 17:33:36;;;;;;;0.20;0.00;;;21.20;99.90;;;;;;21224345;28;20224;-69
2022/09/30 17:43:40;;;;;;;0.20;0.00;;;20.90;99.90;;;;;;21156899;28;20181;-69
2022/09/30 17:53:45;;;;;;;0.20;0.00;;;20.90;99.90;;;;;;21154708;28;20250;-68
2022/09/30 18:03:51;;;;;;;0.20;0.00;;;20.70;99.90;;;;;;21154436;28;20409;-67
2022/09/30 18:13:58;;;;;;;0.20;0.00;;;20.60;99.90;;;;;;21160550;28;20228;-69
2022/09/30 18:24:02;;;;;;;0.20;0.10;;;20.50;99.90;;;;;;21161076;28;20180;-68
2022/09/30 18:34:08;;;;;;;0.20;0.00;;;20.50;99.90;;;;;;21184311;28;20211;-69
2022/09/30 18:44:12;;;;;;;0.20;0.10;;;20.40;99.90;;;;;;21255506;28;20203;-69
2022/09/30 18:54:17;;;;;;;0.20;0.10;;;20.50;99.90;;;;;;21261351;28;20317;-67
2022/09/30 19:04:21;;;;;;;0.20;0.00;;;20.40;99.90;;;;;;21259031;28;20231;-69
2022/09/30 19:14:29;;;;;;;0.20;0.10;;;20.60;99.90;;;;;;21258801;28;20288;-70
2022/09/30 19:24:33;;;;;;;0.20;0.00;;;19.00;99.90;;;;;;21257378;28;20196;-69
2022/09/30 19:34:38;;;;;;;0.20;0.00;;;18.70;99.90;;;;;;21229182;28;20216;-69
2022/09/30 19:44:42;;;;;;;0.20;0.10;;;18.50;99.90;;;;;;21236308;28;20191;-70
2022/09/30 19:54:49;;;;;;;0.20;0.00;;;18.10;99.90;;;;;;21256672;28;20222;-69
2022/09/30 20:04:53;;;;;;;0.20;0.00;;;18.10;99.90;;;;;;21256242;28;20257;-70
2022/09/30 20:25:19;;;;;;;0.20;0.00;;;17.70;99.90;;;;;;21255301;28;20191;-68
2022/09/30 20:35:25;;;;;;;0.20;0.00;;;18.10;99.90;;;;;;21199422;28;20215;-68
2022/09/30 20:45:29;;;;;;;0.20;0.07;;;17.70;99.90;;;;;;21226567;28;20192;-72
2022/09/30 20:55:35;;;;;;;0.20;0.10;;;17.20;99.90;;;;;;21195222;28;20211;-69
2022/09/30 21:05:39;;;;;;;0.20;0.00;;;17.00;99.90;;;;;;21202446;28;20250;-69
2022/09/30 21:15:44;;;;;;;0.20;0.00;;;17.10;99.90;;;;;;21205291;28;20241;-68
2022/09/30 21:25:55;;;;;;;0.20;0.10;;;17.10;99.90;;;;;;21201608;28;20184;-70
2022/09/30 21:36:02;;;;;;;0.20;0.00;;;17.10;99.90;;;;;;21196567;28;20215;-69
2022/09/30 21:46:07;;;;;;;0.20;0.00;;;17.10;99.90;;;;;;21211419;28;20195;-68
2022/09/30 21:56:13;;;;;;;0.20;0.00;;;17.00;99.90;;;;;;21244726;28;20223;-68
2022/09/30 22:06:18;;;;;;;0.20;0.10;;;16.60;99.90;;;;;;21250116;28;20215;-68
2022/09/30 22:16:25;;;;;;;0.20;0.00;;;16.40;99.90;;;;;;21191649;28;20216;-68
2022/09/30 22:26:30;;;;;;;0.20;0.00;;;16.40;99.90;;;;;;21182028;28;20188;-69
2022/09/30 22:46:59;;;;;;;0.20;0.00;;;16.00;99.90;;;;;;21243050;28;20184;-68
2022/09/30 22:57:06;;;;;;;0.20;0.10;;;15.80;99.90;;;;;;21257724;28;20460;-68
2022/09/30 23:07:10;;;;;;;0.20;0.00;;;15.70;99.90;;;;;;21259864;28;20227;-68
2022/09/30 23:17:16;;;;;;;0.20;0.00;;;15.50;99.90;;;;;;21261580;28;20203;-68
2022/09/30 23:27:20;;;;;;;0.20;0.10;;;15.60;99.90;;;;;;21260363;28;20198;-70
2022/09/30 23:37:25;;;;;;;0.20;0.00;;;15.40;99.90;;;;;;21256647;28;20215;-69
2022/09/30 23:47:29;;;;;;;0.20;0.10;;;15.50;99.90;;;;;;21259764;28;20196;-69
2022/09/30 23:57:34;;;;;;;0.20;0.00;;;15.50;99.90;;;;;;21258751;28;20215;-68
